Pagina principale
METAR-TAF:

METAR-TAF

Aeroporti :

Orléans, Francia

latitudine: 47-59N, longitudine: 001-45E, altezza: 126 m

Osservazione

Il bollettino è stato emesso 35 minuti fa, alle 15:00 UTC
Vento 17 kt da nord-est, variando fra nord/nord-est e est
Temperature 23°C
Umidità 29%
Pressione 1016 hPa
Visibilità 10 km o più
nessuna nube inferiore a 1500 m e nessun cumulonembo

METAR: LFOJ 311500Z AUTO 05017KT 020V080 CAVOK 23/04 Q1016 NOSIG

Ora: 17:35 (15:35 UTC)

Previsione

Il bollettino è stato emesso 1 ora e 35 minuti fa, alle 14:00 UTC
Previsione valida dal 31 alle 15 UTC al 01 alle 15 UTC
Vento 18 kt da est/nord-est
Visibilità 10 km o più
nessuna nube inferiore a 1500 m e nessun cumulonembo
Evoluzione graduale
dal 31 alle 18 UTC al 31 alle 20 UTC
Vento 8 kt da est/nord-est

TAF: LFOJ 311400Z 3115/0115 06018KT CAVOK BECMG 3118/3120 06008KT

Osservazioni e previsioni meteorologiche di più di 4000 aeroporti (messaggi METAR e TAF).

Le stazioni disponibili sono rappresentate dai dischi gialli e rossi sulla carta.

Puntare il mouse per vedere il nome della stazione.

Clicca sopra per visualizzare le osservazioni e previsioni meteorologiche.

Per cambiare la mappa : fare clic sui pulsanti verdi con una croce nera per ingrandire, il pulsante verde con un trattino per diminuire, o sulla freccia verde per le mappe adiacenti.


METAR-TAF: